NORTHEAST SUFFOLK  -  Special Weather Statement Special Weather Statement        NORTHERN NASSAU  -  Special Weather Statement Special Weather Statement        NORTHWEST SUFFOLK  -  Special Weather Statement Special Weather Statement        SOUTHEAST SUFFOLK  -  Special Weather Statement Special Weather Statement        SOUTHERN NASSAU  -  Special Weather Statement Special Weather Statement        SOUTHWEST SUFFOLK  -  Special Weather Statement Special Weather Statement      

Active alerts

Northern Nassau
  Details for Northern Nassau Special Weather Statement
Southern Nassau
  Details for Southern Nassau Special Weather Statement
Northwest Suffolk
  Details for Northwest Suffolk Special Weather Statement
Southwest Suffolk
  Details for Southwest Suffolk Special Weather Statement
Northeast Suffolk
  Details for Northeast Suffolk Special Weather Statement
Southeast Suffolk
  Details for Southeast Suffolk Special Weather Statement


WXM80 ListenWXM80 Stop

You find our weather info also at:

UK Metoffice

WeatherCloud

Weather Underground

Northeastern Weather Network

AWEKAS

Citizen Weather Observer Program (CWOP)

HAMweather, WeatherForYou, PWS Weather


Weather Underground History page Text

Daily Summary for October 1, 2017 Units:  Both    English   Metric
« Previous Day
Next Day »
Daily Weekly Monthly Yearly Custom
  High: Low: Average:
Temperature: 70.3 °F /  21.3 °C 49.7 °F /  9.8 °C 58.6 °F /  14.8 °C
Dew Point: 51.7 °F /  10.9 °C 46.0 °F /  7.8 °C 49 °F /  9.4 °C
Humidity: 89 % 45 % 73 %
Wind Speed: 6.3 mph /  10.1 km/h - 1.9 mph /  3.1 km/h
Wind Gust: 11.5 mph /  18.5 km/h - -
Wind:- - SE
Pressure: 30.27 in /  1024.9 hPa 30.14 in /  1020.5 hPa -
Precipitation: 0.00 in /  0 mm    
Historical Graphs
 
 
Tabular Data for October 1, 2017
Time Temperature Dew Point Pressure Wind Wind Speed Wind Gust Humidity Rainfall Rate (Hourly)
00:02 55.1 °F /  12.8 °C 51.0 °F /  10.6 °C 30.21 in /  1022.9 hPa ENE 4.5 mph /  7.2 km/h 4.5 mph /  7.2 km/h 86 % 0.00 in /  0 mm
00:07 55.1 °F /  12.8 °C 51.0 °F /  10.6 °C 30.21 in /  1022.9 hPa ENE 5.3 mph /  8.5 km/h 11.5 mph /  18.5 km/h 86 % 0.00 in /  0 mm
00:12 55.1 °F /  12.8 °C 51.0 °F /  10.6 °C 30.21 in /  1022.9 hPa East 4.0 mph /  6.4 km/h 7.0 mph /  11.3 km/h 86 % 0.00 in /  0 mm
00:17 55.1 °F /  12.8 °C 50.7 °F /  10.4 °C 30.21 in /  1022.9 hPa NE 3.3 mph /  5.3 km/h 4.6 mph /  7.4 km/h 85 % 0.00 in /  0 mm
00:22 55.2 °F /  12.9 °C 51.1 °F /  10.6 °C 30.21 in /  1022.9 hPa NE 3.4 mph /  5.5 km/h 7.0 mph /  11.3 km/h 86 % 0.00 in /  0 mm
00:27 55.2 °F /  12.9 °C 51.1 °F /  10.6 °C 30.22 in /  1023.2 hPa NNE 3.9 mph /  6.3 km/h 5.8 mph /  9.3 km/h 86 % 0.00 in /  0 mm
00:33 55.2 °F /  12.9 °C 51.1 °F /  10.6 °C 30.21 in /  1022.9 hPa NNE 3.2 mph /  5.1 km/h 6.9 mph /  11.1 km/h 86 % 0.00 in /  0 mm
00:38 55.2 °F /  12.9 °C 51.1 °F /  10.6 °C 30.22 in /  1023.2 hPa NNE 4.1 mph /  6.6 km/h 8.1 mph /  13 km/h 86 % 0.00 in /  0 mm
00:43 55.2 °F /  12.9 °C 51.1 °F /  10.6 °C 30.21 in /  1022.9 hPa NNE 2.7 mph /  4.3 km/h 4.6 mph /  7.4 km/h 86 % 0.00 in /  0 mm
00:48 55.3 °F /  12.9 °C 51.2 °F /  10.7 °C 30.22 in /  1023.2 hPa ENE 3.1 mph /  5 km/h 8.1 mph /  13 km/h 86 % 0.00 in /  0 mm
00:53 55.2 °F /  12.9 °C 51.1 °F /  10.6 °C 30.21 in /  1022.9 hPa NE 5.0 mph /  8 km/h 8.1 mph /  13 km/h 86 % 0.00 in /  0 mm
00:58 55.2 °F /  12.9 °C 51.1 °F /  10.6 °C 30.21 in /  1022.9 hPa NE 3.6 mph /  5.8 km/h 8.1 mph /  13 km/h 86 % 0.00 in /  0 mm
01:03 55.2 °F /  12.9 °C 51.1 °F /  10.6 °C 30.21 in /  1022.9 hPa NNE 2.1 mph /  3.4 km/h 6.9 mph /  11.1 km/h 86 % 0.00 in /  0 mm
01:08 55.1 °F /  12.8 °C 51.0 °F /  10.6 °C 30.22 in /  1023.2 hPa North 5.2 mph /  8.4 km/h 9.2 mph /  14.8 km/h 86 % 0.00 in /  0 mm
01:13 55.2 °F /  12.9 °C 51.1 °F /  10.6 °C 30.22 in /  1023.2 hPa NNE 4.9 mph /  7.9 km/h 8.1 mph /  13 km/h 86 % 0.00 in /  0 mm
01:18 55.1 °F /  12.8 °C 51.0 °F /  10.6 °C 30.21 in /  1022.9 hPa NNE 2.3 mph /  3.7 km/h 4.6 mph /  7.4 km/h 86 % 0.00 in /  0 mm
01:23 55.1 °F /  12.8 °C 51.0 °F /  10.6 °C 30.22 in /  1023.2 hPa NE 3.7 mph /  6 km/h 5.8 mph /  9.3 km/h 86 % 0.00 in /  0 mm
01:28 55.0 °F /  12.8 °C 50.9 °F /  10.5 °C 30.21 in /  1022.9 hPa North 2.7 mph /  4.3 km/h 5.0 mph /  8 km/h 86 % 0.00 in /  0 mm
01:33 55.0 °F /  12.8 °C 50.9 °F /  10.5 °C 30.22 in /  1023.2 hPa ENE 3.5 mph /  5.6 km/h 6.9 mph /  11.1 km/h 86 % 0.00 in /  0 mm
01:38 54.9 °F /  12.7 °C 50.8 °F /  10.4 °C 30.22 in /  1023.2 hPa NE 3.8 mph /  6.1 km/h 10.4 mph /  16.7 km/h 86 % 0.00 in /  0 mm
01:44 54.9 °F /  12.7 °C 50.8 °F /  10.4 °C 30.22 in /  1023.2 hPa ENE 3.5 mph /  5.6 km/h 8.1 mph /  13 km/h 86 % 0.00 in /  0 mm
01:49 54.8 °F /  12.7 °C 50.7 °F /  10.4 °C 30.22 in /  1023.2 hPa ENE 3.3 mph /  5.3 km/h 6.9 mph /  11.1 km/h 86 % 0.00 in /  0 mm
01:54 54.8 °F /  12.7 °C 50.7 °F /  10.4 °C 30.22 in /  1023.2 hPa ENE 3.8 mph /  6.1 km/h 5.8 mph /  9.3 km/h 86 % 0.00 in /  0 mm
01:59 54.8 °F /  12.7 °C 50.7 °F /  10.4 °C 30.22 in /  1023.2 hPa ENE 4.2 mph /  6.8 km/h 8.0 mph /  12.9 km/h 86 % 0.00 in /  0 mm
02:04 54.8 °F /  12.7 °C 50.7 °F /  10.4 °C 30.22 in /  1023.2 hPa ENE 3.6 mph /  5.8 km/h 9.2 mph /  14.8 km/h 86 % 0.00 in /  0 mm
02:09 54.9 °F /  12.7 °C 50.8 °F /  10.4 °C 30.22 in /  1023.2 hPa NE 2.4 mph /  3.9 km/h 8.1 mph /  13 km/h 86 % 0.00 in /  0 mm
02:14 54.8 °F /  12.7 °C 50.7 °F /  10.4 °C 30.22 in /  1023.2 hPa NE 2.4 mph /  3.9 km/h 4.6 mph /  7.4 km/h 86 % 0.00 in /  0 mm
02:19 54.9 °F /  12.7 °C 50.8 °F /  10.4 °C 30.22 in /  1023.2 hPa ENE 3.2 mph /  5.1 km/h 9.2 mph /  14.8 km/h 86 % 0.00 in /  0 mm
02:24 54.9 °F /  12.7 °C 50.8 °F /  10.4 °C 30.22 in /  1023.2 hPa ENE 0.4 mph /  0.6 km/h 2.3 mph /  3.7 km/h 86 % 0.00 in /  0 mm
02:29 54.9 °F /  12.7 °C 50.8 °F /  10.4 °C 30.22 in /  1023.2 hPa NE 1.0 mph /  1.6 km/h 2.3 mph /  3.7 km/h 86 % 0.00 in /  0 mm
02:34 54.9 °F /  12.7 °C 50.8 °F /  10.4 °C 30.22 in /  1023.2 hPa NE 2.9 mph /  4.7 km/h 3.5 mph /  5.6 km/h 86 % 0.00 in /  0 mm
02:39 54.8 °F /  12.7 °C 50.7 °F /  10.4 °C 30.22 in /  1023.2 hPa NE 1.4 mph /  2.3 km/h 5.0 mph /  8 km/h 86 % 0.00 in /  0 mm
02:44 54.9 °F /  12.7 °C 50.8 °F /  10.4 °C 30.22 in /  1023.2 hPa NNE 1.0 mph /  1.6 km/h 4.6 mph /  7.4 km/h 86 % 0.00 in /  0 mm
02:49 54.9 °F /  12.7 °C 50.8 °F /  10.4 °C 30.22 in /  1023.2 hPa NE 1.5 mph /  2.4 km/h 3.5 mph /  5.6 km/h 86 % 0.00 in /  0 mm
02:54 54.9 °F /  12.7 °C 50.5 °F /  10.3 °C 30.22 in /  1023.2 hPa ENE 1.1 mph /  1.8 km/h 3.5 mph /  5.6 km/h 85 % 0.00 in /  0 mm
02:59 54.9 °F /  12.7 °C 50.8 °F /  10.4 °C 30.22 in /  1023.2 hPa North 4.0 mph /  6.4 km/h 10.4 mph /  16.7 km/h 86 % 0.00 in /  0 mm
03:04 54.9 °F /  12.7 °C 50.8 °F /  10.4 °C 30.22 in /  1023.2 hPa NNE 3.3 mph /  5.3 km/h 4.6 mph /  7.4 km/h 86 % 0.00 in /  0 mm
03:09 54.8 °F /  12.7 °C 50.7 °F /  10.4 °C 30.22 in /  1023.2 hPa NNE 3.5 mph /  5.6 km/h 5.8 mph /  9.3 km/h 86 % 0.00 in /  0 mm
03:14 54.7 °F /  12.6 °C 50.6 °F /  10.3 °C 30.22 in /  1023.2 hPa NE 4.6 mph /  7.4 km/h 7.0 mph /  11.3 km/h 86 % 0.00 in /  0 mm
03:19 54.6 °F /  12.6 °C 50.2 °F /  10.1 °C 30.22 in /  1023.2 hPa NNE 4.7 mph /  7.6 km/h 5.8 mph /  9.3 km/h 85 % 0.00 in /  0 mm
03:24 54.5 °F /  12.5 °C 50.1 °F /  10.1 °C 30.22 in /  1023.2 hPa North 2.8 mph /  4.5 km/h 6.0 mph /  9.7 km/h 85 % 0.00 in /  0 mm
03:29 54.3 °F /  12.4 °C 49.9 °F /  9.9 °C 30.22 in /  1023.2 hPa NNE 6.3 mph /  10.1 km/h 8.1 mph /  13 km/h 85 % 0.00 in /  0 mm
03:34 54.2 °F /  12.3 °C 49.8 °F /  9.9 °C 30.22 in /  1023.2 hPa ENE 3.0 mph /  4.8 km/h 5.8 mph /  9.3 km/h 85 % 0.00 in /  0 mm
03:39 54.1 °F /  12.3 °C 49.7 °F /  9.8 °C 30.22 in /  1023.2 hPa NNE 0.7 mph /  1.1 km/h 3.5 mph /  5.6 km/h 85 % 0.00 in /  0 mm
03:45 54.0 °F /  12.2 °C 49.6 °F /  9.8 °C 30.22 in /  1023.2 hPa NNE 3.2 mph /  5.1 km/h 6.9 mph /  11.1 km/h 85 % 0.00 in /  0 mm
03:50 53.8 °F /  12.1 °C 49.4 °F /  9.7 °C 30.22 in /  1023.2 hPa NNE 2.1 mph /  3.4 km/h 4.6 mph /  7.4 km/h 85 % 0.00 in /  0 mm
03:55 53.7 °F /  12.1 °C 49.6 °F /  9.8 °C 30.22 in /  1023.2 hPa NE 1.8 mph /  2.9 km/h 4.6 mph /  7.4 km/h 86 % 0.00 in /  0 mm
04:00 53.5 °F /  11.9 °C 49.4 °F /  9.7 °C 30.22 in /  1023.2 hPa NNE 3.0 mph /  4.8 km/h 6.9 mph /  11.1 km/h 86 % 0.00 in /  0 mm
04:05 53.4 °F /  11.9 °C 49.0 °F /  9.4 °C 30.22 in /  1023.2 hPa NE 0.6 mph /  1 km/h 4.6 mph /  7.4 km/h 85 % 0.00 in /  0 mm
04:07 53.4 °F /  11.9 °C 49.0 °F /  9.4 °C 30.22 in /  1023.2 hPa NNE 0.7 mph /  1.1 km/h 3.5 mph /  5.6 km/h 85 % 0.00 in /  0 mm
04:12 53.3 °F /  11.8 °C 48.9 °F /  9.4 °C 30.22 in /  1023.2 hPa ENE 1.6 mph /  2.6 km/h 4.6 mph /  7.4 km/h 85 % 0.00 in /  0 mm
04:17 53.3 °F /  11.8 °C 48.9 °F /  9.4 °C 30.22 in /  1023.2 hPa NNE 2.2 mph /  3.5 km/h 4.6 mph /  7.4 km/h 85 % 0.00 in /  0 mm
04:22 53.2 °F /  11.8 °C 49.1 °F /  9.5 °C 30.22 in /  1023.2 hPa North 3.6 mph /  5.8 km/h 6.0 mph /  9.7 km/h 86 % 0.00 in /  0 mm
04:27 53.2 °F /  11.8 °C 49.1 °F /  9.5 °C 30.22 in /  1023.2 hPa ENE 2.8 mph /  4.5 km/h 4.6 mph /  7.4 km/h 86 % 0.00 in /  0 mm
04:28 53.2 °F /  11.8 °C 49.1 °F /  9.5 °C 30.22 in /  1023.2 hPa NE 3.9 mph /  6.3 km/h 6.9 mph /  11.1 km/h 86 % 0.00 in /  0 mm
04:33 53.1 °F /  11.7 °C 49.0 °F /  9.4 °C 30.22 in /  1023.2 hPa NNE 1.6 mph /  2.6 km/h 5.8 mph /  9.3 km/h 86 % 0.00 in /  0 mm
04:38 53.1 °F /  11.7 °C 49.3 °F /  9.6 °C 30.22 in /  1023.2 hPa North 5.2 mph /  8.4 km/h 8.1 mph /  13 km/h 87 % 0.00 in /  0 mm
04:43 53.0 °F /  11.7 °C 48.9 °F /  9.4 °C 30.22 in /  1023.2 hPa NE 1.7 mph /  2.7 km/h 4.6 mph /  7.4 km/h 86 % 0.00 in /  0 mm
04:48 53.0 °F /  11.7 °C 49.2 °F /  9.6 °C 30.22 in /  1023.2 hPa NE 1.6 mph /  2.6 km/h 4.6 mph /  7.4 km/h 87 % 0.00 in /  0 mm
04:53 53.0 °F /  11.7 °C 49.2 °F /  9.6 °C 30.22 in /  1023.2 hPa NE 2.6 mph /  4.2 km/h 4.6 mph /  7.4 km/h 87 % 0.00 in /  0 mm
04:58 52.9 °F /  11.6 °C 49.1 °F /  9.5 °C 30.22 in /  1023.2 hPa NE 4.3 mph /  6.9 km/h 5.8 mph /  9.3 km/h 87 % 0.00 in /  0 mm
05:03 52.9 °F /  11.6 °C 49.1 °F /  9.5 °C 30.22 in /  1023.2 hPa NNE 1.7 mph /  2.7 km/h 4.6 mph /  7.4 km/h 87 % 0.00 in /  0 mm
05:08 52.8 °F /  11.6 °C 49.0 °F /  9.4 °C 30.23 in /  1023.6 hPa East 1.3 mph /  2.1 km/h 5.0 mph /  8 km/h 87 % 0.00 in /  0 mm
05:13 52.8 °F /  11.6 °C 49.3 °F /  9.6 °C 30.23 in /  1023.6 hPa NE 4.2 mph /  6.8 km/h 9.2 mph /  14.8 km/h 88 % 0.00 in /  0 mm
05:18 52.8 °F /  11.6 °C 49.3 °F /  9.6 °C 30.22 in /  1023.2 hPa NNE 5.2 mph /  8.4 km/h 8.1 mph /  13 km/h 88 % 0.00 in /  0 mm
05:23 52.8 °F /  11.6 °C 49.3 °F /  9.6 °C 30.23 in /  1023.6 hPa North 3.0 mph /  4.8 km/h 5.0 mph /  8 km/h 88 % 0.00 in /  0 mm
05:28 52.8 °F /  11.6 °C 49.3 °F /  9.6 °C 30.23 in /  1023.6 hPa NE 5.5 mph /  8.9 km/h 10.4 mph /  16.7 km/h 88 % 0.00 in /  0 mm
05:33 52.8 °F /  11.6 °C 49.3 °F /  9.6 °C 30.23 in /  1023.6 hPa NNE 3.2 mph /  5.1 km/h 8.0 mph /  12.9 km/h 88 % 0.00 in /  0 mm
05:38 52.8 °F /  11.6 °C 49.3 °F /  9.6 °C 30.23 in /  1023.6 hPa NNE 2.7 mph /  4.3 km/h 3.5 mph /  5.6 km/h 88 % 0.00 in /  0 mm
05:43 52.8 °F /  11.6 °C 49.3 °F /  9.6 °C 30.23 in /  1023.6 hPa NNE 2.3 mph /  3.7 km/h 6.0 mph /  9.7 km/h 88 % 0.00 in /  0 mm
05:48 52.7 °F /  11.5 °C 49.2 °F /  9.6 °C 30.23 in /  1023.6 hPa NNE 2.8 mph /  4.5 km/h 4.6 mph /  7.4 km/h 88 % 0.00 in /  0 mm
05:53 52.7 °F /  11.5 °C 49.2 °F /  9.6 °C 30.23 in /  1023.6 hPa NNE 2.9 mph /  4.7 km/h 6.0 mph /  9.7 km/h 88 % 0.00 in /  0 mm
05:58 52.7 °F /  11.5 °C 49.2 °F /  9.6 °C 30.23 in /  1023.6 hPa NE 0.9 mph /  1.4 km/h 3.5 mph /  5.6 km/h 88 % 0.00 in /  0 mm
06:03 52.8 °F /  11.6 °C 49.3 °F /  9.6 °C 30.23 in /  1023.6 hPa NNW 2.5 mph /  4 km/h 5.8 mph /  9.3 km/h 88 % 0.00 in /  0 mm
06:08 52.8 °F /  11.6 °C 49.3 °F /  9.6 °C 30.23 in /  1023.6 hPa NNE 2.6 mph /  4.2 km/h 5.8 mph /  9.3 km/h 88 % 0.00 in /  0 mm
06:14 52.8 °F /  11.6 °C 49.3 °F /  9.6 °C 30.23 in /  1023.6 hPa ENE 0.6 mph /  1 km/h 5.8 mph /  9.3 km/h 88 % 0.00 in /  0 mm
06:19 52.8 °F /  11.6 °C 49.3 °F /  9.6 °C 30.23 in /  1023.6 hPa NE 2.1 mph /  3.4 km/h 6.9 mph /  11.1 km/h 88 % 0.00 in /  0 mm
06:24 52.9 °F /  11.6 °C 49.4 °F /  9.7 °C 30.23 in /  1023.6 hPa North 3.1 mph /  5 km/h 6.9 mph /  11.1 km/h 88 % 0.00 in /  0 mm
06:29 53.0 °F /  11.7 °C 49.2 °F /  9.6 °C 30.23 in /  1023.6 hPa NNE 0.3 mph /  0.5 km/h 5.8 mph /  9.3 km/h 87 % 0.00 in /  0 mm
06:34 53.0 °F /  11.7 °C 49.2 °F /  9.6 °C 30.23 in /  1023.6 hPa NE 3.4 mph /  5.5 km/h 5.0 mph /  8 km/h 87 % 0.00 in /  0 mm
06:39 53.2 °F /  11.8 °C 49.4 °F /  9.7 °C 30.23 in /  1023.6 hPa NE 1.3 mph /  2.1 km/h 6.9 mph /  11.1 km/h 87 % 0.00 in /  0 mm
06:44 53.2 °F /  11.8 °C 49.4 °F /  9.7 °C 30.23 in /  1023.6 hPa ENE 1.3 mph /  2.1 km/h 6.9 mph /  11.1 km/h 87 % 0.00 in /  0 mm
06:46 53.3 °F /  11.8 °C 49.5 °F /  9.7 °C 30.24 in /  1023.9 hPa NNE 1.4 mph /  2.3 km/h 4.6 mph /  7.4 km/h 87 % 0.00 in /  0 mm
06:51 53.3 °F /  11.8 °C 49.5 °F /  9.7 °C 30.24 in /  1023.9 hPa NNE 3.4 mph /  5.5 km/h 5.8 mph /  9.3 km/h 87 % 0.00 in /  0 mm
06:56 53.4 °F /  11.9 °C 49.6 °F /  9.8 °C 30.24 in /  1023.9 hPa NNE 3.2 mph /  5.1 km/h 3.5 mph /  5.6 km/h 87 % 0.00 in /  0 mm
07:01 53.5 °F /  11.9 °C 49.7 °F /  9.8 °C 30.24 in /  1023.9 hPa NE 2.9 mph /  4.7 km/h 5.0 mph /  8 km/h 87 % 0.00 in /  0 mm
07:06 53.5 °F /  11.9 °C 49.7 °F /  9.8 °C 30.24 in /  1023.9 hPa NNE 2.0 mph /  3.2 km/h 6.0 mph /  9.7 km/h 87 % 0.00 in /  0 mm
07:11 53.6 °F /  12 °C 49.8 °F /  9.9 °C 30.24 in /  1023.9 hPa North 3.2 mph /  5.1 km/h 5.0 mph /  8 km/h 87 % 0.00 in /  0 mm
07:16 53.7 °F /  12.1 °C 49.9 °F /  9.9 °C 30.24 in /  1023.9 hPa NNE 3.0 mph /  4.8 km/h 8.0 mph /  12.9 km/h 87 % 0.00 in /  0 mm
07:21 53.8 °F /  12.1 °C 49.7 °F /  9.8 °C 30.24 in /  1023.9 hPa NNE 3.0 mph /  4.8 km/h 9.0 mph /  14.5 km/h 86 % 0.00 in /  0 mm
07:26 53.9 °F /  12.2 °C 49.2 °F /  9.6 °C 30.24 in /  1023.9 hPa NNE 3.0 mph /  4.8 km/h 7.0 mph /  11.3 km/h 84 % 0.00 in /  0 mm
07:31 54.1 °F /  12.3 °C 49.1 °F /  9.5 °C 30.24 in /  1023.9 hPa NE 2.0 mph /  3.2 km/h 6.0 mph /  9.7 km/h 83 % 0.00 in /  0 mm
07:41 54.5 °F /  12.5 °C 49.1 °F /  9.5 °C 30.25 in /  1024.3 hPa NNE 5.0 mph /  8 km/h 9.0 mph /  14.5 km/h 82 % 0.00 in /  0 mm
07:46 54.7 °F /  12.6 °C 49.0 °F /  9.4 °C 30.25 in /  1024.3 hPa NE 2.0 mph /  3.2 km/h 6.0 mph /  9.7 km/h 81 % 0.00 in /  0 mm
07:51 54.9 °F /  12.7 °C 49.2 °F /  9.6 °C 30.25 in /  1024.3 hPa NNE 4.9 mph /  7.9 km/h 4.9 mph /  7.9 km/h 81 % 0.00 in /  0 mm
07:56 55.0 °F /  12.8 °C 49.3 °F /  9.6 °C 30.25 in /  1024.3 hPa NNE 3.0 mph /  4.8 km/h 8.0 mph /  12.9 km/h 81 % 0.00 in /  0 mm
08:01 55.1 °F /  12.8 °C 49.4 °F /  9.7 °C 30.25 in /  1024.3 hPa ENE 2.5 mph /  4 km/h 6.9 mph /  11.1 km/h 81 % 0.00 in /  0 mm
08:06 55.1 °F /  12.8 °C 49.4 °F /  9.7 °C 30.25 in /  1024.3 hPa ENE 1.4 mph /  2.3 km/h 4.0 mph /  6.4 km/h 81 % 0.00 in /  0 mm
08:11 55.2 °F /  12.9 °C 49.5 °F /  9.7 °C 30.25 in /  1024.3 hPa ENE 2.9 mph /  4.7 km/h 4.6 mph /  7.4 km/h 81 % 0.00 in /  0 mm
08:16 55.2 °F /  12.9 °C 48.8 °F /  9.3 °C 30.25 in /  1024.3 hPa NNE 4.1 mph /  6.6 km/h 8.1 mph /  13 km/h 79 % 0.00 in /  0 mm
08:21 55.4 °F /  13 °C 48.3 °F /  9.1 °C 30.25 in /  1024.3 hPa ENE 3.9 mph /  6.3 km/h 10.0 mph /  16.1 km/h 77 % 0.00 in /  0 mm
08:26 55.6 °F /  13.1 °C 48.8 °F /  9.3 °C 30.25 in /  1024.3 hPa North 1.9 mph /  3.1 km/h 6.9 mph /  11.1 km/h 78 % 0.00 in /  0 mm
08:31 55.7 °F /  13.2 °C 49.3 °F /  9.6 °C 30.25 in /  1024.3 hPa NE 3.1 mph /  5 km/h 5.8 mph /  9.3 km/h 79 % 0.00 in /  0 mm
08:36 55.8 °F /  13.2 °C 49.4 °F /  9.7 °C 30.25 in /  1024.3 hPa NE 1.3 mph /  2.1 km/h 6.9 mph /  11.1 km/h 79 % 0.00 in /  0 mm
08:41 55.8 °F /  13.2 °C 49.0 °F /  9.4 °C 30.26 in /  1024.6 hPa NE 3.0 mph /  4.8 km/h 4.6 mph /  7.4 km/h 78 % 0.00 in /  0 mm
08:46 55.9 °F /  13.3 °C 48.8 °F /  9.3 °C 30.26 in /  1024.6 hPa NE 2.9 mph /  4.7 km/h 6.9 mph /  11.1 km/h 77 % 0.00 in /  0 mm
08:51 56.0 °F /  13.3 °C 48.5 °F /  9.2 °C 30.26 in /  1024.6 hPa NE 4.0 mph /  6.4 km/h 8.1 mph /  13 km/h 76 % 0.00 in /  0 mm
08:56 56.0 °F /  13.3 °C 48.5 °F /  9.2 °C 30.26 in /  1024.6 hPa NE 1.0 mph /  1.6 km/h 8.1 mph /  13 km/h 76 % 0.00 in /  0 mm
09:01 56.1 °F /  13.4 °C 48.3 °F /  9.1 °C 30.26 in /  1024.6 hPa North 2.4 mph /  3.9 km/h 7.0 mph /  11.3 km/h 75 % 0.00 in /  0 mm
09:06 56.1 °F /  13.4 °C 48.3 °F /  9.1 °C 30.26 in /  1024.6 hPa NE 2.0 mph /  3.2 km/h 6.9 mph /  11.1 km/h 75 % 0.00 in /  0 mm
09:11 56.2 °F /  13.4 °C 48.4 °F /  9.1 °C 30.26 in /  1024.6 hPa NNE 5.5 mph /  8.9 km/h 9.2 mph /  14.8 km/h 75 % 0.00 in /  0 mm
09:16 56.2 °F /  13.4 °C 48.4 °F /  9.1 °C 30.26 in /  1024.6 hPa North 4.9 mph /  7.9 km/h 8.1 mph /  13 km/h 75 % 0.00 in /  0 mm
09:21 56.3 °F /  13.5 °C 48.8 °F /  9.3 °C 30.26 in /  1024.6 hPa NE 2.9 mph /  4.7 km/h 4.6 mph /  7.4 km/h 76 % 0.00 in /  0 mm
09:26 56.4 °F /  13.6 °C 47.9 °F /  8.8 °C 30.27 in /  1024.9 hPa NNE 3.5 mph /  5.6 km/h 6.9 mph /  11.1 km/h 73 % 0.00 in /  0 mm
09:31 56.6 °F /  13.7 °C 48.0 °F /  8.9 °C 30.27 in /  1024.9 hPa ENE 5.0 mph /  8 km/h 9.0 mph /  14.5 km/h 73 % 0.00 in /  0 mm
09:36 56.8 °F /  13.8 °C 47.5 °F /  8.6 °C 30.27 in /  1024.9 hPa NNE 5.3 mph /  8.5 km/h 9.2 mph /  14.8 km/h 71 % 0.00 in /  0 mm
09:41 56.9 °F /  13.8 °C 47.6 °F /  8.7 °C 30.27 in /  1024.9 hPa ENE 6.0 mph /  9.7 km/h 11.5 mph /  18.5 km/h 71 % 0.00 in /  0 mm
09:46 57.0 °F /  13.9 °C 47.3 °F /  8.5 °C 30.27 in /  1024.9 hPa NE 2.8 mph /  4.5 km/h 4.6 mph /  7.4 km/h 70 % 0.00 in /  0 mm
09:51 57.2 °F /  14 °C 46.3 °F /  7.9 °C 30.27 in /  1024.9 hPa NNE 2.2 mph /  3.5 km/h 8.1 mph /  13 km/h 67 % 0.00 in /  0 mm
09:56 57.3 °F /  14.1 °C 47.2 °F /  8.4 °C 30.27 in /  1024.9 hPa NNW 4.0 mph /  6.4 km/h 8.1 mph /  13 km/h 69 % 0.00 in /  0 mm
10:01 57.5 °F /  14.2 °C 47.4 °F /  8.6 °C 30.27 in /  1024.9 hPa NE 4.4 mph /  7.1 km/h 9.2 mph /  14.8 km/h 69 % 0.00 in /  0 mm
10:06 57.6 °F /  14.2 °C 47.5 °F /  8.6 °C 30.27 in /  1024.9 hPa East 4.4 mph /  7.1 km/h 8.1 mph /  13 km/h 69 % 0.00 in /  0 mm
10:11 57.8 °F /  14.3 °C 47.7 °F /  8.7 °C 30.27 in /  1024.9 hPa ENE 4.6 mph /  7.4 km/h 8.1 mph /  13 km/h 69 % 0.00 in /  0 mm
10:16 58.1 °F /  14.5 °C 48.0 °F /  8.9 °C 30.27 in /  1024.9 hPa NNW 3.8 mph /  6.1 km/h 8.1 mph /  13 km/h 69 % 0.00 in /  0 mm
10:21 58.5 °F /  14.7 °C 48.4 °F /  9.1 °C 30.27 in /  1024.9 hPa NE 5.8 mph /  9.3 km/h 10.4 mph /  16.7 km/h 69 % 0.00 in /  0 mm
10:26 58.7 °F /  14.8 °C 48.6 °F /  9.2 °C 30.27 in /  1024.9 hPa ENE 2.8 mph /  4.5 km/h 5.0 mph /  8 km/h 69 % 0.00 in /  0 mm
10:31 58.9 °F /  14.9 °C 48.7 °F /  9.3 °C 30.27 in /  1024.9 hPa NE 1.7 mph /  2.7 km/h 4.6 mph /  7.4 km/h 69 % 0.00 in /  0 mm
10:36 59.1 °F /  15.1 °C 48.5 °F /  9.2 °C 30.27 in /  1024.9 hPa NNE 2.5 mph /  4 km/h 3.5 mph /  5.6 km/h 68 % 0.00 in /  0 mm
10:41 59.1 °F /  15.1 °C 48.5 °F /  9.2 °C 30.27 in /  1024.9 hPa NE 4.6 mph /  7.4 km/h 5.8 mph /  9.3 km/h 68 % 0.00 in /  0 mm
10:46 59.2 °F /  15.1 °C 48.6 °F /  9.2 °C 30.26 in /  1024.6 hPa ENE 3.4 mph /  5.5 km/h 4.6 mph /  7.4 km/h 68 % 0.00 in /  0 mm
10:52 59.2 °F /  15.1 °C 48.2 °F /  9 °C 30.26 in /  1024.6 hPa ENE 3.3 mph /  5.3 km/h 5.8 mph /  9.3 km/h 67 % 0.00 in /  0 mm
10:57 59.3 °F /  15.2 °C 48.7 °F /  9.3 °C 30.26 in /  1024.6 hPa ENE 3.6 mph /  5.8 km/h 4.6 mph /  7.4 km/h 68 % 0.00 in /  0 mm
11:02 59.6 °F /  15.3 °C 48.6 °F /  9.2 °C 30.26 in /  1024.6 hPa NE 2.4 mph /  3.9 km/h 4.6 mph /  7.4 km/h 67 % 0.00 in /  0 mm
11:07 60.2 °F /  15.7 °C 49.2 °F /  9.6 °C 30.26 in /  1024.6 hPa ENE 3.4 mph /  5.5 km/h 7.0 mph /  11.3 km/h 67 % 0.00 in /  0 mm
11:12 61.1 °F /  16.2 °C 50.1 °F /  10.1 °C 30.26 in /  1024.6 hPa NE 2.8 mph /  4.5 km/h 5.8 mph /  9.3 km/h 67 % 0.00 in /  0 mm
11:17 62.0 °F /  16.7 °C 50.5 °F /  10.3 °C 30.26 in /  1024.6 hPa NE 1.6 mph /  2.6 km/h 4.0 mph /  6.4 km/h 66 % 0.00 in /  0 mm
11:22 63.0 °F /  17.2 °C 50.2 °F /  10.1 °C 30.25 in /  1024.3 hPa NNE 2.4 mph /  3.9 km/h 3.5 mph /  5.6 km/h 63 % 0.00 in /  0 mm
11:28 64.1 °F /  17.8 °C 50.4 °F /  10.2 °C 30.25 in /  1024.3 hPa ENE 3.0 mph /  4.8 km/h 4.6 mph /  7.4 km/h 61 % 0.00 in /  0 mm
11:33 64.9 °F /  18.3 °C 51.1 °F /  10.6 °C 30.25 in /  1024.3 hPa NE 1.9 mph /  3.1 km/h 3.5 mph /  5.6 km/h 61 % 0.00 in /  0 mm
11:38 65.5 °F /  18.6 °C 48.9 °F /  9.4 °C 30.25 in /  1024.3 hPa North 1.4 mph /  2.3 km/h 5.8 mph /  9.3 km/h 55 % 0.00 in /  0 mm
11:43 66.1 °F /  18.9 °C 50.4 °F /  10.2 °C 30.25 in /  1024.3 hPa NNW 2.7 mph /  4.3 km/h 5.8 mph /  9.3 km/h 57 % 0.00 in /  0 mm
11:48 66.6 °F /  19.2 °C 50.9 °F /  10.5 °C 30.25 in /  1024.3 hPa NNW 1.1 mph /  1.8 km/h 3.5 mph /  5.6 km/h 57 % 0.00 in /  0 mm
11:53 67.3 °F /  19.6 °C 50.1 °F /  10.1 °C 30.25 in /  1024.3 hPa NE 2.1 mph /  3.4 km/h 3.5 mph /  5.6 km/h 54 % 0.00 in /  0 mm
11:58 67.6 °F /  19.8 °C 51.3 °F /  10.7 °C 30.25 in /  1024.3 hPa ENE 1.4 mph /  2.3 km/h 4.0 mph /  6.4 km/h 56 % 0.00 in /  0 mm
12:03 68.2 °F /  20.1 °C 50.9 °F /  10.5 °C 30.25 in /  1024.3 hPa NNW 3.6 mph /  5.8 km/h 5.0 mph /  8 km/h 54 % 0.00 in /  0 mm
12:08 68.5 °F /  20.3 °C 50.7 °F /  10.4 °C 30.25 in /  1024.3 hPa NNW 1.3 mph /  2.1 km/h 4.6 mph /  7.4 km/h 53 % 0.00 in /  0 mm
12:13 69.0 °F /  20.6 °C 51.7 °F /  10.9 °C 30.25 in /  1024.3 hPa WNW 1.9 mph /  3.1 km/h 2.3 mph /  3.7 km/h 54 % 0.00 in /  0 mm
12:18 69.2 °F /  20.7 °C 51.3 °F /  10.7 °C 30.24 in /  1023.9 hPa NNE 2.2 mph /  3.5 km/h 4.6 mph /  7.4 km/h 53 % 0.00 in /  0 mm
12:23 69.3 °F /  20.7 °C 51.4 °F /  10.8 °C 30.24 in /  1023.9 hPa NNW 2.0 mph /  3.2 km/h 4.6 mph /  7.4 km/h 53 % 0.00 in /  0 mm
12:28 69.2 °F /  20.7 °C 49.2 °F /  9.6 °C 30.24 in /  1023.9 hPa Calm   1.2 mph /  1.9 km/h 49 % 0.00 in /  0 mm
12:33 69.3 °F /  20.7 °C 48.8 °F /  9.3 °C 30.24 in /  1023.9 hPa WNW 1.5 mph /  2.4 km/h 4.0 mph /  6.4 km/h 48 % 0.00 in /  0 mm
12:38 69.5 °F /  20.8 °C 50.6 °F /  10.3 °C 30.24 in /  1023.9 hPa North 0.6 mph /  1 km/h 3.5 mph /  5.6 km/h 51 % 0.00 in /  0 mm
12:43 69.4 °F /  20.8 °C 50.5 °F /  10.3 °C 30.24 in /  1023.9 hPa NE 1.0 mph /  1.6 km/h 3.5 mph /  5.6 km/h 51 % 0.00 in /  0 mm
12:48 69.5 °F /  20.8 °C 48.9 °F /  9.4 °C 30.24 in /  1023.9 hPa West 1.0 mph /  1.6 km/h 3.5 mph /  5.6 km/h 48 % 0.00 in /  0 mm
12:53 69.5 °F /  20.8 °C 51.1 °F /  10.6 °C 30.23 in /  1023.6 hPa NNE 2.6 mph /  4.2 km/h 5.0 mph /  8 km/h 52 % 0.00 in /  0 mm
12:58 69.6 °F /  20.9 °C 49.0 °F /  9.4 °C 30.23 in /  1023.6 hPa WNW 1.5 mph /  2.4 km/h 3.5 mph /  5.6 km/h 48 % 0.00 in /  0 mm
13:03 69.6 °F /  20.9 °C 49.6 °F /  9.8 °C 30.23 in /  1023.6 hPa WSW 2.9 mph /  4.7 km/h 5.8 mph /  9.3 km/h 49 % 0.00 in /  0 mm
13:08 69.6 °F /  20.9 °C 49.6 °F /  9.8 °C 30.23 in /  1023.6 hPa SW 0.8 mph /  1.3 km/h 4.6 mph /  7.4 km/h 49 % 0.00 in /  0 mm
13:13 69.6 °F /  20.9 °C 49.0 °F /  9.4 °C 30.22 in /  1023.2 hPa WSW 1.2 mph /  1.9 km/h 3.0 mph /  4.8 km/h 48 % 0.00 in /  0 mm
13:18 69.8 °F /  21 °C 50.9 °F /  10.5 °C 30.22 in /  1023.2 hPa Calm   1.2 mph /  1.9 km/h 51 % 0.00 in /  0 mm
13:23 69.8 °F /  21 °C 48.7 °F /  9.3 °C 30.22 in /  1023.2 hPa North 0.4 mph /  0.6 km/h 2.3 mph /  3.7 km/h 47 % 0.00 in /  0 mm
13:28 69.7 °F /  20.9 °C 48.6 °F /  9.2 °C 30.21 in /  1022.9 hPa NNW 1.7 mph /  2.7 km/h 2.0 mph /  3.2 km/h 47 % 0.00 in /  0 mm
13:33 69.8 °F /  21 °C 49.2 °F /  9.6 °C 30.21 in /  1022.9 hPa NNE 3.0 mph /  4.8 km/h 4.6 mph /  7.4 km/h 48 % 0.00 in /  0 mm
13:38 69.7 °F /  20.9 °C 49.1 °F /  9.5 °C 30.21 in /  1022.9 hPa WNW 0.9 mph /  1.4 km/h 3.5 mph /  5.6 km/h 48 % 0.00 in /  0 mm
13:43 69.6 °F /  20.9 °C 47.3 °F /  8.5 °C 30.21 in /  1022.9 hPa West 2.6 mph /  4.2 km/h 3.5 mph /  5.6 km/h 45 % 0.00 in /  0 mm
13:48 69.7 °F /  20.9 °C 50.8 °F /  10.4 °C 30.20 in /  1022.6 hPa NW 0.2 mph /  0.3 km/h 2.0 mph /  3.2 km/h 51 % 0.00 in /  0 mm
13:50 69.7 °F /  20.9 °C 49.1 °F /  9.5 °C 30.20 in /  1022.6 hPa NW 0.8 mph /  1.3 km/h 2.3 mph /  3.7 km/h 48 % 0.00 in /  0 mm
13:55 69.8 °F /  21 °C 50.9 °F /  10.5 °C 30.20 in /  1022.6 hPa Calm     51 % 0.00 in /  0 mm
14:00 69.9 °F /  21.1 °C 50.4 °F /  10.2 °C 30.20 in /  1022.6 hPa NE 2.2 mph /  3.5 km/h 4.6 mph /  7.4 km/h 50 % 0.00 in /  0 mm
14:05 69.7 °F /  20.9 °C 48.6 °F /  9.2 °C 30.20 in /  1022.6 hPa NW 0.4 mph /  0.6 km/h 2.3 mph /  3.7 km/h 47 % 0.00 in /  0 mm
14:10 69.8 °F /  21 °C 49.2 °F /  9.6 °C 30.19 in /  1022.2 hPa WNW 1.8 mph /  2.9 km/h 4.6 mph /  7.4 km/h 48 % 0.00 in /  0 mm
14:15 69.9 °F /  21.1 °C 50.9 °F /  10.5 °C 30.19 in /  1022.2 hPa WSW 2.9 mph /  4.7 km/h 5.0 mph /  8 km/h 51 % 0.00 in /  0 mm
14:20 70.0 °F /  21.1 °C 50.0 °F /  10 °C 30.19 in /  1022.2 hPa West 3.6 mph /  5.8 km/h 5.8 mph /  9.3 km/h 49 % 0.00 in /  0 mm
14:25 70.0 °F /  21.1 °C 50.5 °F /  10.3 °C 30.19 in /  1022.2 hPa NNW 1.3 mph /  2.1 km/h 4.6 mph /  7.4 km/h 50 % 0.00 in /  0 mm
14:30 70.1 °F /  21.2 °C 51.1 °F /  10.6 °C 30.19 in /  1022.2 hPa West 1.2 mph /  1.9 km/h 3.5 mph /  5.6 km/h 51 % 0.00 in /  0 mm
14:35 70.1 °F /  21.2 °C 49.5 °F /  9.7 °C 30.19 in /  1022.2 hPa WNW 1.9 mph /  3.1 km/h 3.5 mph /  5.6 km/h 48 % 0.00 in /  0 mm
14:40 70.0 °F /  21.1 °C 48.8 °F /  9.3 °C 30.18 in /  1021.9 hPa WSW 1.1 mph /  1.8 km/h 3.5 mph /  5.6 km/h 47 % 0.00 in /  0 mm
14:45 70.1 °F /  21.2 °C 49.5 °F /  9.7 °C 30.18 in /  1021.9 hPa SW 0.2 mph /  0.3 km/h 2.0 mph /  3.2 km/h 48 % 0.00 in /  0 mm
14:50 70.1 °F /  21.2 °C 50.6 °F /  10.3 °C 30.18 in /  1021.9 hPa SW 0.1 mph /  0.2 km/h 1.2 mph /  1.9 km/h 50 % 0.00 in /  0 mm
14:55 70.2 °F /  21.2 °C 50.1 °F /  10.1 °C 30.18 in /  1021.9 hPa SW 0.7 mph /  1.1 km/h 2.3 mph /  3.7 km/h 49 % 0.00 in /  0 mm
15:00 70.3 °F /  21.3 °C 49.7 °F /  9.8 °C 30.18 in /  1021.9 hPa WSW 1.4 mph /  2.3 km/h 3.5 mph /  5.6 km/h 48 % 0.00 in /  0 mm
15:05 70.2 °F /  21.2 °C 49.0 °F /  9.4 °C 30.17 in /  1021.6 hPa SW 0.2 mph /  0.3 km/h 1.2 mph /  1.9 km/h 47 % 0.00 in /  0 mm
15:10 70.2 °F /  21.2 °C 49.0 °F /  9.4 °C 30.17 in /  1021.6 hPa West 2.4 mph /  3.9 km/h 3.5 mph /  5.6 km/h 47 % 0.00 in /  0 mm
15:15 70.2 °F /  21.2 °C 47.9 °F /  8.8 °C 30.17 in /  1021.6 hPa WSW 3.9 mph /  6.3 km/h 5.8 mph /  9.3 km/h 45 % 0.00 in /  0 mm
15:20 70.1 °F /  21.2 °C 48.4 °F /  9.1 °C 30.17 in /  1021.6 hPa WNW 1.0 mph /  1.6 km/h 3.5 mph /  5.6 km/h 46 % 0.00 in /  0 mm
15:25 69.7 °F /  20.9 °C 48.6 °F /  9.2 °C 30.17 in /  1021.6 hPa NNW 0.8 mph /  1.3 km/h 2.3 mph /  3.7 km/h 47 % 0.00 in /  0 mm
15:30 69.5 °F /  20.8 °C 47.2 °F /  8.4 °C 30.17 in /  1021.6 hPa West 1.4 mph /  2.3 km/h 3.5 mph /  5.6 km/h 45 % 0.00 in /  0 mm
15:35 69.3 °F /  20.7 °C 47.0 °F /  8.3 °C 30.17 in /  1021.6 hPa West 1.8 mph /  2.9 km/h 3.5 mph /  5.6 km/h 45 % 0.00 in /  0 mm
15:40 69.0 °F /  20.6 °C 47.4 °F /  8.6 °C 30.17 in /  1021.6 hPa WSW 1.5 mph /  2.4 km/h 4.6 mph /  7.4 km/h 46 % 0.00 in /  0 mm
15:45 68.8 °F /  20.4 °C 46.6 °F /  8.1 °C 30.17 in /  1021.6 hPa WNW 2.4 mph /  3.9 km/h 3.5 mph /  5.6 km/h 45 % 0.00 in /  0 mm
15:50 68.5 °F /  20.3 °C 46.9 °F /  8.3 °C 30.16 in /  1021.2 hPa West 3.1 mph /  5 km/h 5.0 mph /  8 km/h 46 % 0.00 in /  0 mm
15:56 68.2 °F /  20.1 °C 47.2 °F /  8.4 °C 30.16 in /  1021.2 hPa WNW 1.0 mph /  1.6 km/h 3.5 mph /  5.6 km/h 47 % 0.00 in /  0 mm
16:01 67.9 °F /  19.9 °C 46.9 °F /  8.3 °C 30.16 in /  1021.2 hPa West 0.2 mph /  0.3 km/h 3.5 mph /  5.6 km/h 47 % 0.00 in /  0 mm
16:06 67.6 °F /  19.8 °C 47.2 °F /  8.4 °C 30.16 in /  1021.2 hPa WNW 0.1 mph /  0.2 km/h 1.2 mph /  1.9 km/h 48 % 0.00 in /  0 mm
16:11 67.4 °F /  19.7 °C 47.6 °F /  8.7 °C 30.16 in /  1021.2 hPa WSW 0.8 mph /  1.3 km/h 3.5 mph /  5.6 km/h 49 % 0.00 in /  0 mm
16:16 67.1 °F /  19.5 °C 47.3 °F /  8.5 °C 30.16 in /  1021.2 hPa SW 2.0 mph /  3.2 km/h 5.8 mph /  9.3 km/h 49 % 0.00 in /  0 mm
16:21 66.9 °F /  19.4 °C 47.6 °F /  8.7 °C 30.15 in /  1020.9 hPa SSW 2.2 mph /  3.5 km/h 3.5 mph /  5.6 km/h 50 % 0.00 in /  0 mm
16:24 66.7 °F /  19.3 °C 47.5 °F /  8.6 °C 30.15 in /  1020.9 hPa SSW 3.3 mph /  5.3 km/h 5.0 mph /  8 km/h 50 % 0.00 in /  0 mm
16:29 66.5 °F /  19.2 °C 47.3 °F /  8.5 °C 30.15 in /  1020.9 hPa West 0.3 mph /  0.5 km/h 5.8 mph /  9.3 km/h 50 % 0.00 in /  0 mm
16:34 66.3 °F /  19.1 °C 47.1 °F /  8.4 °C 30.15 in /  1020.9 hPa WSW 3.5 mph /  5.6 km/h 4.6 mph /  7.4 km/h 50 % 0.00 in /  0 mm
16:39 66.1 °F /  18.9 °C 46.9 °F /  8.3 °C 30.15 in /  1020.9 hPa WSW 0.6 mph /  1 km/h 4.6 mph /  7.4 km/h 50 % 0.00 in /  0 mm
16:44 65.9 °F /  18.8 °C 46.2 °F /  7.9 °C 30.15 in /  1020.9 hPa South 2.4 mph /  3.9 km/h 4.6 mph /  7.4 km/h 49 % 0.00 in /  0 mm
16:49 65.7 °F /  18.7 °C 46.5 °F /  8.1 °C 30.15 in /  1020.9 hPa SW 2.4 mph /  3.9 km/h 5.0 mph /  8 km/h 50 % 0.00 in /  0 mm
16:54 65.6 °F /  18.7 °C 46.5 °F /  8.1 °C 30.15 in /  1020.9 hPa SSW 1.3 mph /  2.1 km/h 3.5 mph /  5.6 km/h 50 % 0.00 in /  0 mm
16:59 65.4 °F /  18.6 °C 46.3 °F /  7.9 °C 30.15 in /  1020.9 hPa WSW 2.4 mph /  3.9 km/h 5.8 mph /  9.3 km/h 50 % 0.00 in /  0 mm
17:04 65.2 °F /  18.4 °C 46.6 °F /  8.1 °C 30.15 in /  1020.9 hPa WNW 1.0 mph /  1.6 km/h 3.5 mph /  5.6 km/h 51 % 0.00 in /  0 mm
17:09 65.1 °F /  18.4 °C 46.5 °F /  8.1 °C 30.15 in /  1020.9 hPa WSW 3.7 mph /  6 km/h 5.0 mph /  8 km/h 51 % 0.00 in /  0 mm
17:14 64.9 °F /  18.3 °C 46.3 °F /  7.9 °C 30.15 in /  1020.9 hPa WSW 2.8 mph /  4.5 km/h 5.8 mph /  9.3 km/h 51 % 0.00 in /  0 mm
17:19 64.8 °F /  18.2 °C 46.2 °F /  7.9 °C 30.14 in /  1020.5 hPa WNW 1.5 mph /  2.4 km/h 4.6 mph /  7.4 km/h 51 % 0.00 in /  0 mm
17:24 64.7 °F /  18.2 °C 46.7 °F /  8.2 °C 30.15 in /  1020.9 hPa West 2.2 mph /  3.5 km/h 4.0 mph /  6.4 km/h 52 % 0.00 in /  0 mm
17:29 64.5 °F /  18.1 °C 46.0 °F /  7.8 °C 30.14 in /  1020.5 hPa WNW 1.2 mph /  1.9 km/h 3.5 mph /  5.6 km/h 51 % 0.00 in /  0 mm
17:34 64.4 °F /  18 °C 46.4 °F /  8 °C 30.14 in /  1020.5 hPa Calm     52 % 0.00 in /  0 mm
17:39 64.3 °F /  17.9 °C 47.3 °F /  8.5 °C 30.15 in /  1020.9 hPa Calm     54 % 0.00 in /  0 mm
17:44 64.2 °F /  17.9 °C 47.2 °F /  8.4 °C 30.15 in /  1020.9 hPa Calm   2.3 mph /  3.7 km/h 54 % 0.00 in /  0 mm
17:49 64.1 °F /  17.8 °C 47.1 °F /  8.4 °C 30.15 in /  1020.9 hPa West 0.5 mph /  0.8 km/h 2.0 mph /  3.2 km/h 54 % 0.00 in /  0 mm
17:54 63.9 °F /  17.7 °C 46.4 °F /  8 °C 30.14 in /  1020.5 hPa West 0.1 mph /  0.2 km/h 1.2 mph /  1.9 km/h 53 % 0.00 in /  0 mm
17:59 63.8 °F /  17.7 °C 47.8 °F /  8.8 °C 30.14 in /  1020.5 hPa Calm     56 % 0.00 in /  0 mm
18:05 63.6 °F /  17.6 °C 47.1 °F /  8.4 °C 30.14 in /  1020.5 hPa Calm   1.2 mph /  1.9 km/h 55 % 0.00 in /  0 mm
18:10 63.5 °F /  17.5 °C 48.0 °F /  8.9 °C 30.14 in /  1020.5 hPa Calm   1.2 mph /  1.9 km/h 57 % 0.00 in /  0 mm
18:15 63.3 °F /  17.4 °C 48.3 °F /  9.1 °C 30.14 in /  1020.5 hPa Calm     58 % 0.00 in /  0 mm
18:20 63.1 °F /  17.3 °C 48.5 °F /  9.2 °C 30.14 in /  1020.5 hPa Calm     59 % 0.00 in /  0 mm
18:25 62.8 °F /  17.1 °C 48.7 °F /  9.3 °C 30.15 in /  1020.9 hPa Calm     60 % 0.00 in /  0 mm
18:30 62.5 °F /  16.9 °C 49.3 °F /  9.6 °C 30.15 in /  1020.9 hPa Calm     62 % 0.00 in /  0 mm
18:35 62.1 °F /  16.7 °C 49.8 °F /  9.9 °C 30.14 in /  1020.5 hPa Calm     64 % 0.00 in /  0 mm
18:40 61.8 °F /  16.6 °C 50.3 °F /  10.2 °C 30.14 in /  1020.5 hPa Calm     66 % 0.00 in /  0 mm
18:45 61.3 °F /  16.3 °C 50.2 °F /  10.1 °C 30.15 in /  1020.9 hPa Calm     67 % 0.00 in /  0 mm
18:50 60.9 °F /  16.1 °C 50.3 °F /  10.2 °C 30.15 in /  1020.9 hPa Calm     68 % 0.00 in /  0 mm
18:55 60.5 °F /  15.8 °C 49.9 °F /  9.9 °C 30.14 in /  1020.5 hPa West 0.3 mph /  0.5 km/h 1.2 mph /  1.9 km/h 68 % 0.00 in /  0 mm
19:00 60.1 °F /  15.6 °C 49.5 °F /  9.7 °C 30.14 in /  1020.5 hPa Calm     68 % 0.00 in /  0 mm
19:05 59.7 °F /  15.4 °C 49.5 °F /  9.7 °C 30.14 in /  1020.5 hPa Calm   1.2 mph /  1.9 km/h 69 % 0.00 in /  0 mm
19:10 59.3 °F /  15.2 °C 49.1 °F /  9.5 °C 30.14 in /  1020.5 hPa Calm   1.2 mph /  1.9 km/h 69 % 0.00 in /  0 mm
19:15 58.9 °F /  14.9 °C 49.1 °F /  9.5 °C 30.14 in /  1020.5 hPa Calm     70 % 0.00 in /  0 mm
19:20 58.5 °F /  14.7 °C 49.1 °F /  9.5 °C 30.14 in /  1020.5 hPa West 0.2 mph /  0.3 km/h 1.2 mph /  1.9 km/h 71 % 0.00 in /  0 mm
19:25 58.2 °F /  14.6 °C 49.2 °F /  9.6 °C 30.14 in /  1020.5 hPa Calm     72 % 0.00 in /  0 mm
19:30 57.7 °F /  14.3 °C 49.1 °F /  9.5 °C 30.14 in /  1020.5 hPa Calm     73 % 0.00 in /  0 mm
19:35 57.4 °F /  14.1 °C 48.8 °F /  9.3 °C 30.15 in /  1020.9 hPa Calm     73 % 0.00 in /  0 mm
19:40 57.0 °F /  13.9 °C 48.8 °F /  9.3 °C 30.15 in /  1020.9 hPa Calm     74 % 0.00 in /  0 mm
19:45 56.7 °F /  13.7 °C 48.9 °F /  9.4 °C 30.15 in /  1020.9 hPa West 0.1 mph /  0.2 km/h 2.3 mph /  3.7 km/h 75 % 0.00 in /  0 mm
19:50 56.4 °F /  13.6 °C 48.9 °F /  9.4 °C 30.15 in /  1020.9 hPa West 0.4 mph /  0.6 km/h 1.2 mph /  1.9 km/h 76 % 0.00 in /  0 mm
19:56 56.1 °F /  13.4 °C 49.0 °F /  9.4 °C 30.16 in /  1021.2 hPa Calm   2.0 mph /  3.2 km/h 77 % 0.00 in /  0 mm
20:01 55.8 °F /  13.2 °C 49.0 °F /  9.4 °C 30.15 in /  1020.9 hPa Calm     78 % 0.00 in /  0 mm
20:06 55.5 °F /  13.1 °C 48.8 °F /  9.3 °C 30.16 in /  1021.2 hPa Calm   1.0 mph /  1.6 km/h 78 % 0.00 in /  0 mm
20:11 55.3 °F /  12.9 °C 48.9 °F /  9.4 °C 30.15 in /  1020.9 hPa Calm   1.2 mph /  1.9 km/h 79 % 0.00 in /  0 mm
20:16 55.0 °F /  12.8 °C 48.6 °F /  9.2 °C 30.16 in /  1021.2 hPa West 0.6 mph /  1 km/h 1.0 mph /  1.6 km/h 79 % 0.00 in /  0 mm
20:22 54.8 °F /  12.7 °C 48.7 °F /  9.3 °C 30.16 in /  1021.2 hPa West 0.1 mph /  0.2 km/h 1.2 mph /  1.9 km/h 80 % 0.00 in /  0 mm
20:27 54.6 °F /  12.6 °C 48.6 °F /  9.2 °C 30.16 in /  1021.2 hPa West 0.9 mph /  1.4 km/h 2.0 mph /  3.2 km/h 80 % 0.00 in /  0 mm
20:32 54.3 °F /  12.4 °C 48.6 °F /  9.2 °C 30.16 in /  1021.2 hPa Calm   1.2 mph /  1.9 km/h 81 % 0.00 in /  0 mm
20:37 54.1 °F /  12.3 °C 48.4 °F /  9.1 °C 30.16 in /  1021.2 hPa West 0.2 mph /  0.3 km/h 1.2 mph /  1.9 km/h 81 % 0.00 in /  0 mm
20:42 53.9 °F /  12.2 °C 48.5 °F /  9.2 °C 30.16 in /  1021.2 hPa West 1.2 mph /  1.9 km/h 2.3 mph /  3.7 km/h 82 % 0.00 in /  0 mm
20:47 53.8 °F /  12.1 °C 48.4 °F /  9.1 °C 30.17 in /  1021.6 hPa Calm     82 % 0.00 in /  0 mm
20:52 53.6 °F /  12 °C 48.6 °F /  9.2 °C 30.17 in /  1021.6 hPa Calm     83 % 0.00 in /  0 mm
20:57 53.5 °F /  11.9 °C 48.5 °F /  9.2 °C 30.17 in /  1021.6 hPa Calm     83 % 0.00 in /  0 mm
21:02 53.3 °F /  11.8 °C 48.3 °F /  9.1 °C 30.17 in /  1021.6 hPa Calm     83 % 0.00 in /  0 mm
21:07 53.1 °F /  11.7 °C 48.1 °F /  8.9 °C 30.17 in /  1021.6 hPa Calm     83 % 0.00 in /  0 mm
21:12 53.0 °F /  11.7 °C 48.3 °F /  9.1 °C 30.17 in /  1021.6 hPa Calm     84 % 0.00 in /  0 mm
21:17 52.8 °F /  11.6 °C 48.1 °F /  8.9 °C 30.18 in /  1021.9 hPa Calm     84 % 0.00 in /  0 mm
21:22 52.6 °F /  11.4 °C 47.9 °F /  8.8 °C 30.18 in /  1021.9 hPa Calm     84 % 0.00 in /  0 mm
21:27 52.5 °F /  11.4 °C 47.8 °F /  8.8 °C 30.17 in /  1021.6 hPa Calm     84 % 0.00 in /  0 mm
21:32 52.4 °F /  11.3 °C 47.7 °F /  8.7 °C 30.18 in /  1021.9 hPa Calm     84 % 0.00 in /  0 mm
21:37 52.2 °F /  11.2 °C 47.8 °F /  8.8 °C 30.18 in /  1021.9 hPa Calm   2.3 mph /  3.7 km/h 85 % 0.00 in /  0 mm
21:42 52.1 °F /  11.2 °C 47.7 °F /  8.7 °C 30.18 in /  1021.9 hPa West 0.3 mph /  0.5 km/h 2.3 mph /  3.7 km/h 85 % 0.00 in /  0 mm
21:47 51.9 °F /  11.1 °C 47.5 °F /  8.6 °C 30.18 in /  1021.9 hPa Calm     85 % 0.00 in /  0 mm
21:52 51.8 °F /  11 °C 47.7 °F /  8.7 °C 30.18 in /  1021.9 hPa West 0.1 mph /  0.2 km/h 1.2 mph /  1.9 km/h 86 % 0.00 in /  0 mm
21:57 51.7 °F /  10.9 °C 47.6 °F /  8.7 °C 30.18 in /  1021.9 hPa Calm     86 % 0.00 in /  0 mm
22:02 51.5 °F /  10.8 °C 47.5 °F /  8.6 °C 30.18 in /  1021.9 hPa Calm     86 % 0.00 in /  0 mm
22:07 51.4 °F /  10.8 °C 47.4 °F /  8.6 °C 30.18 in /  1021.9 hPa Calm     86 % 0.00 in /  0 mm
22:12 51.3 °F /  10.7 °C 47.6 °F /  8.7 °C 30.18 in /  1021.9 hPa Calm     87 % 0.00 in /  0 mm
22:18 51.2 °F /  10.7 °C 47.5 °F /  8.6 °C 30.18 in /  1021.9 hPa West 0.1 mph /  0.2 km/h 1.2 mph /  1.9 km/h 87 % 0.00 in /  0 mm
22:23 51.1 °F /  10.6 °C 47.7 °F /  8.7 °C 30.17 in /  1021.6 hPa Calm   1.2 mph /  1.9 km/h 88 % 0.00 in /  0 mm
22:28 51.1 °F /  10.6 °C 47.7 °F /  8.7 °C 30.17 in /  1021.6 hPa Calm   1.2 mph /  1.9 km/h 88 % 0.00 in /  0 mm
22:33 51.0 °F /  10.6 °C 47.6 °F /  8.7 °C 30.18 in /  1021.9 hPa Calm     88 % 0.00 in /  0 mm
22:38 51.0 °F /  10.6 °C 47.9 °F /  8.8 °C 30.18 in /  1021.9 hPa Calm     89 % 0.00 in /  0 mm
22:43 50.9 °F /  10.5 °C 47.8 °F /  8.8 °C 30.17 in /  1021.6 hPa Calm     89 % 0.00 in /  0 mm
22:48 50.9 °F /  10.5 °C 47.8 °F /  8.8 °C 30.17 in /  1021.6 hPa Calm     89 % 0.00 in /  0 mm
22:53 50.8 °F /  10.4 °C 47.4 °F /  8.6 °C 30.17 in /  1021.6 hPa Calm     88 % 0.00 in /  0 mm
22:58 50.8 °F /  10.4 °C 47.4 °F /  8.6 °C 30.17 in /  1021.6 hPa Calm     88 % 0.00 in /  0 mm
23:03 50.7 °F /  10.4 °C 47.3 °F /  8.5 °C 30.17 in /  1021.6 hPa Calm     88 % 0.00 in /  0 mm
23:08 50.6 °F /  10.3 °C 47.2 °F /  8.4 °C 30.17 in /  1021.6 hPa Calm     88 % 0.00 in /  0 mm
23:13 50.5 °F /  10.3 °C 47.1 °F /  8.4 °C 30.17 in /  1021.6 hPa Calm     88 % 0.00 in /  0 mm
23:18 50.4 °F /  10.2 °C 47.0 °F /  8.3 °C 30.17 in /  1021.6 hPa Calm     88 % 0.00 in /  0 mm
23:23 50.3 °F /  10.2 °C 46.9 °F /  8.3 °C 30.17 in /  1021.6 hPa Calm     88 % 0.00 in /  0 mm
23:28 50.2 °F /  10.1 °C 46.8 °F /  8.2 °C 30.17 in /  1021.6 hPa Calm     88 % 0.00 in /  0 mm
23:31 50.2 °F /  10.1 °C 46.8 °F /  8.2 °C 30.17 in /  1021.6 hPa Calm     88 % 0.00 in /  0 mm
23:36 50.1 °F /  10.1 °C 46.7 °F /  8.2 °C 30.17 in /  1021.6 hPa Calm     88 % 0.00 in /  0 mm
23:41 50.0 °F /  10 °C 46.6 °F /  8.1 °C 30.17 in /  1021.6 hPa Calm     88 % 0.00 in /  0 mm
23:46 49.9 °F /  9.9 °C 46.5 °F /  8.1 °C 30.17 in /  1021.6 hPa Calm     88 % 0.00 in /  0 mm
23:51 49.8 °F /  9.9 °C 46.4 °F /  8 °C 30.17 in /  1021.6 hPa Calm     88 % 0.00 in /  0 mm
23:56 49.7 °F /  9.8 °C 46.3 °F /  7.9 °C 30.17 in /  1021.6 hPa Calm     88 % 0.00 in /  0 mm
Crab Meadow Weather
Compliments of Weather Underground - 3 mb

Script developed by  Jim McMurry - jmcmurry@mwt.net Adapted for the template by  Wim van der Kuil - Leuven-Template.eu

Astronomy: February 1865 is the only month recorded in history not to have a full moon.